sensor_id;sensor_type;location;lat;lon;timestamp;pressure;altitude;pressure_sealevel;temperature;humidity
70200;BME280;57587;55.688;37.600;2023-03-24T00:00:32;98215.31;;;9.28;58.68
70200;BME280;57587;55.688;37.600;2023-03-24T00:03:00;98216.13;;;9.29;58.77
70200;BME280;57587;55.688;37.600;2023-03-24T00:05:29;98214.50;;;9.28;58.62
70200;BME280;57587;55.688;37.600;2023-03-24T00:07:56;98187.81;;;9.28;58.42
70200;BME280;57587;55.688;37.600;2023-03-24T00:10:28;98198.06;;;9.31;58.90
70200;BME280;57587;55.688;37.600;2023-03-24T00:13:02;98202.22;;;9.20;58.70
70200;BME280;57587;55.688;37.600;2023-03-24T00:15:29;98190.91;;;9.24;58.40
70200;BME280;57587;55.688;37.600;2023-03-24T00:17:57;98186.63;;;9.10;58.67
70200;BME280;57587;55.688;37.600;2023-03-24T00:20:25;98201.38;;;9.19;58.80
70200;BME280;57587;55.688;37.600;2023-03-24T00:22:54;98201.78;;;9.16;59.00
70200;BME280;57587;55.688;37.600;2023-03-24T00:25:29;98187.44;;;9.17;58.96
70200;BME280;57587;55.688;37.600;2023-03-24T00:28:02;98186.38;;;9.25;59.03
70200;BME280;57587;55.688;37.600;2023-03-24T00:30:32;98184.97;;;9.29;58.67
70200;BME280;57587;55.688;37.600;2023-03-24T00:33:01;98165.00;;;9.32;58.48
70200;BME280;57587;55.688;37.600;2023-03-24T00:35:28;98176.31;;;9.27;58.86
70200;BME280;57587;55.688;37.600;2023-03-24T00:37:55;98178.34;;;9.32;59.04
70200;BME280;57587;55.688;37.600;2023-03-24T00:40:23;98171.81;;;9.28;59.25
70200;BME280;57587;55.688;37.600;2023-03-24T00:42:50;98169.34;;;9.33;58.37
70200;BME280;57587;55.688;37.600;2023-03-24T00:45:20;98164.00;;;9.33;58.73
70200;BME280;57587;55.688;37.600;2023-03-24T00:47:51;98148.81;;;9.27;59.08
70200;BME280;57587;55.688;37.600;2023-03-24T00:50:24;98153.34;;;9.26;59.12
70200;BME280;57587;55.688;37.600;2023-03-24T00:52:55;98151.53;;;9.20;59.22
70200;BME280;57587;55.688;37.600;2023-03-24T00:55:24;98157.47;;;9.15;59.36
70200;BME280;57587;55.688;37.600;2023-03-24T00:57:55;98153.75;;;9.16;59.33
70200;BME280;57587;55.688;37.600;2023-03-24T01:00:24;98149.88;;;9.12;59.68
70200;BME280;57587;55.688;37.600;2023-03-24T01:02:54;98147.19;;;9.19;59.33
70200;BME280;57587;55.688;37.600;2023-03-24T01:05:25;98142.25;;;9.22;59.31
70200;BME280;57587;55.688;37.600;2023-03-24T01:07:58;98143.88;;;9.30;58.95
70200;BME280;57587;55.688;37.600;2023-03-24T01:10:33;98141.00;;;9.32;59.30
70200;BME280;57587;55.688;37.600;2023-03-24T01:13:01;98135.25;;;9.28;59.13
70200;BME280;57587;55.688;37.600;2023-03-24T01:15:32;98128.91;;;9.29;58.58
70200;BME280;57587;55.688;37.600;2023-03-24T01:17:59;98132.41;;;9.30;59.10
70200;BME280;57587;55.688;37.600;2023-03-24T01:20:30;98142.22;;;9.36;58.78
70200;BME280;57587;55.688;37.600;2023-03-24T01:23:00;98153.69;;;9.43;58.64
70200;BME280;57587;55.688;37.600;2023-03-24T01:25:27;98161.28;;;9.46;58.40
70200;BME280;57587;55.688;37.600;2023-03-24T01:27:56;98157.38;;;9.49;58.76
70200;BME280;57587;55.688;37.600;2023-03-24T01:30:25;98154.66;;;9.55;58.36
70200;BME280;57587;55.688;37.600;2023-03-24T01:32:53;98149.94;;;9.57;58.18
70200;BME280;57587;55.688;37.600;2023-03-24T01:35:21;98149.09;;;9.63;58.01
70200;BME280;57587;55.688;37.600;2023-03-24T01:37:49;98149.50;;;9.67;58.04
70200;BME280;57587;55.688;37.600;2023-03-24T01:40:25;98142.69;;;9.71;58.26
70200;BME280;57587;55.688;37.600;2023-03-24T01:42:53;98140.00;;;9.71;57.98
70200;BME280;57587;55.688;37.600;2023-03-24T01:48:21;98134.44;;;9.79;58.14
70200;BME280;57587;55.688;37.600;2023-03-24T01:50:54;98131.53;;;9.81;57.96
70200;BME280;57587;55.688;37.600;2023-03-24T01:53:23;98131.53;;;9.81;58.34
70200;BME280;57587;55.688;37.600;2023-03-24T01:55:51;98126.03;;;9.76;58.37
70200;BME280;57587;55.688;37.600;2023-03-24T01:58:24;98124.81;;;9.72;58.25
70200;BME280;57587;55.688;37.600;2023-03-24T02:01:16;98119.50;;;9.65;58.23
70200;BME280;57587;55.688;37.600;2023-03-24T02:04:00;98116.00;;;9.64;58.72
70200;BME280;57587;55.688;37.600;2023-03-24T02:06:33;98123.22;;;9.64;58.55
70200;BME280;57587;55.688;37.600;2023-03-24T02:09:02;98106.81;;;9.60;59.12
70200;BME280;57587;55.688;37.600;2023-03-24T02:11:32;98107.38;;;9.62;58.79
70200;BME280;57587;55.688;37.600;2023-03-24T02:14:05;98108.84;;;9.58;58.92
70200;BME280;57587;55.688;37.600;2023-03-24T02:16:47;98111.94;;;9.55;59.40
70200;BME280;57587;55.688;37.600;2023-03-24T02:19:26;98107.88;;;9.46;59.43
70200;BME280;57587;55.688;37.600;2023-03-24T02:32:53;98096.31;;;9.59;59.11
70200;BME280;57587;55.688;37.600;2023-03-24T02:47:03;98079.66;;;9.63;58.95
70200;BME280;57587;55.688;37.600;2023-03-24T02:55:23;98092.75;;;9.72;59.04
70200;BME280;57587;55.688;37.600;2023-03-24T02:59:02;98072.44;;;9.70;58.89
70200;BME280;57587;55.688;37.600;2023-03-24T03:01:12;98069.75;;;9.70;59.23
70200;BME280;57587;55.688;37.600;2023-03-24T03:04:15;98068.56;;;9.66;58.96
70200;BME280;57587;55.688;37.600;2023-03-24T03:06:48;98050.25;;;9.70;58.84
70200;BME280;57587;55.688;37.600;2023-03-24T03:09:20;98058.66;;;9.74;59.04
70200;BME280;57587;55.688;37.600;2023-03-24T03:11:51;98063.56;;;9.77;58.76
70200;BME280;57587;55.688;37.600;2023-03-24T03:14:38;98059.41;;;9.81;59.01
70200;BME280;57587;55.688;37.600;2023-03-24T03:17:12;98055.88;;;9.87;58.16
70200;BME280;57587;55.688;37.600;2023-03-24T03:19:51;98053.44;;;9.85;58.76
70200;BME280;57587;55.688;37.600;2023-03-24T03:22:24;98047.00;;;9.93;58.40
70200;BME280;57587;55.688;37.600;2023-03-24T03:24:55;98038.13;;;9.99;58.19
70200;BME280;57587;55.688;37.600;2023-03-24T03:27:26;98033.22;;;9.96;58.14
70200;BME280;57587;55.688;37.600;2023-03-24T03:29:58;98032.56;;;10.01;57.71
70200;BME280;57587;55.688;37.600;2023-03-24T03:32:31;98034.56;;;10.05;58.03
70200;BME280;57587;55.688;37.600;2023-03-24T03:35:15;98025.50;;;10.06;57.98
70200;BME280;57587;55.688;37.600;2023-03-24T03:37:53;98035.63;;;10.04;57.86
70200;BME280;57587;55.688;37.600;2023-03-24T03:40:42;98037.84;;;10.07;57.71
70200;BME280;57587;55.688;37.600;2023-03-24T03:43:17;98036.00;;;10.08;58.01
70200;BME280;57587;55.688;37.600;2023-03-24T03:45:45;98039.09;;;10.05;58.29
70200;BME280;57587;55.688;37.600;2023-03-24T03:48:14;98030.47;;;10.03;58.59
70200;BME280;57587;55.688;37.600;2023-03-24T03:50:43;98042.22;;;10.02;59.03
70200;BME280;57587;55.688;37.600;2023-03-24T03:53:12;98039.75;;;10.00;59.82
70200;BME280;57587;55.688;37.600;2023-03-24T03:55:41;98035.44;;;9.99;60.09
70200;BME280;57587;55.688;37.600;2023-03-24T03:58:09;98035.06;;;9.96;60.67
70200;BME280;57587;55.688;37.600;2023-03-24T04:00:41;98035.44;;;9.99;60.73
70200;BME280;57587;55.688;37.600;2023-03-24T04:03:55;98037.75;;;9.96;61.21
70200;BME280;57587;55.688;37.600;2023-03-24T04:07:14;98047.00;;;9.93;62.16
70200;BME280;57587;55.688;37.600;2023-03-24T04:18:54;98027.97;;;9.83;63.20
70200;BME280;57587;55.688;37.600;2023-03-24T04:27:22;98016.88;;;9.54;65.13
70200;BME280;57587;55.688;37.600;2023-03-24T04:35:10;98016.47;;;9.51;65.98
70200;BME280;57587;55.688;37.600;2023-03-24T04:38:08;98021.22;;;9.49;65.68
70200;BME280;57587;55.688;37.600;2023-03-24T04:40:40;98020.44;;;9.41;66.06
70200;BME280;57587;55.688;37.600;2023-03-24T04:43:12;98009.16;;;9.39;66.03
70200;BME280;57587;55.688;37.600;2023-03-24T04:45:43;98016.94;;;9.41;67.23
70200;BME280;57587;55.688;37.600;2023-03-24T04:48:23;98003.38;;;9.42;66.81
70200;BME280;57587;55.688;37.600;2023-03-24T04:51:10;98005.91;;;9.31;66.82
70200;BME280;57587;55.688;37.600;2023-03-24T04:53:50;98005.94;;;9.24;68.54
70200;BME280;57587;55.688;37.600;2023-03-24T04:56:45;98010.38;;;9.37;68.10
70200;BME280;57587;55.688;37.600;2023-03-24T04:59:21;98001.16;;;9.39;67.26
70200;BME280;57587;55.688;37.600;2023-03-24T05:01:49;98014.09;;;9.36;67.65
70200;BME280;57587;55.688;37.600;2023-03-24T05:04:27;98009.19;;;9.33;67.83
70200;BME280;57587;55.688;37.600;2023-03-24T05:06:58;98002.63;;;9.35;68.66
70200;BME280;57587;55.688;37.600;2023-03-24T05:09:26;98009.00;;;9.28;68.76
70200;BME280;57587;55.688;37.600;2023-03-24T05:11:53;98012.06;;;9.31;68.42
70200;BME280;57587;55.688;37.600;2023-03-24T05:14:22;98009.19;;;9.33;69.04
70200;BME280;57587;55.688;37.600;2023-03-24T05:16:50;98021.50;;;9.34;69.30
70200;BME280;57587;55.688;37.600;2023-03-24T05:19:18;98021.31;;;9.29;68.83
70200;BME280;57587;55.688;37.600;2023-03-24T05:21:49;98023.38;;;9.27;69.19
70200;BME280;57587;55.688;37.600;2023-03-24T05:24:16;98019.69;;;9.28;70.21
70200;BME280;57587;55.688;37.600;2023-03-24T05:26:43;98021.91;;;9.31;69.05
70200;BME280;57587;55.688;37.600;2023-03-24T05:29:17;98020.72;;;9.27;69.51
70200;BME280;57587;55.688;37.600;2023-03-24T05:31:44;98023.19;;;9.21;69.88
70200;BME280;57587;55.688;37.600;2023-03-24T05:34:15;98014.56;;;9.19;69.52
70200;BME280;57587;55.688;37.600;2023-03-24T05:37:02;98016.41;;;9.26;69.75
70200;BME280;57587;55.688;37.600;2023-03-24T05:39:29;98016.63;;;9.24;69.86
70200;BME280;57587;55.688;37.600;2023-03-24T05:42:04;98023.16;;;9.28;69.73
70200;BME280;57587;55.688;37.600;2023-03-24T05:44:32;98019.44;;;9.36;69.94
70200;BME280;57587;55.688;37.600;2023-03-24T05:47:04;98018.81;;;9.34;69.72
70200;BME280;57587;55.688;37.600;2023-03-24T05:49:31;98012.63;;;9.40;70.02
70200;BME280;57587;55.688;37.600;2023-03-24T05:51:59;98013.63;;;9.45;69.81
70200;BME280;57587;55.688;37.600;2023-03-24T05:54:27;98017.31;;;9.44;69.26
70200;BME280;57587;55.688;37.600;2023-03-24T05:57:03;98010.91;;;9.52;69.50
70200;BME280;57587;55.688;37.600;2023-03-24T05:59:33;98019.94;;;9.58;69.91
70200;BME280;57587;55.688;37.600;2023-03-24T06:02:10;98019.69;;;9.59;69.36
70200;BME280;57587;55.688;37.600;2023-03-24T06:04:58;98011.69;;;9.59;69.38
70200;BME280;57587;55.688;37.600;2023-03-24T06:07:26;98015.16;;;9.66;69.38
70200;BME280;57587;55.688;37.600;2023-03-24T06:09:57;98015.16;;;9.66;69.42
70200;BME280;57587;55.688;37.600;2023-03-24T06:12:37;98009.44;;;9.56;69.85
70200;BME280;57587;55.688;37.600;2023-03-24T06:15:05;98010.69;;;9.54;70.04
70200;BME280;57587;55.688;37.600;2023-03-24T06:17:33;98006.19;;;9.54;70.21
70200;BME280;57587;55.688;37.600;2023-03-24T06:20:07;98003.94;;;9.51;70.29
70200;BME280;57587;55.688;37.600;2023-03-24T06:22:45;98007.88;;;9.49;69.88
70200;BME280;57587;55.688;37.600;2023-03-24T06:25:17;98018.28;;;9.57;70.34
70200;BME280;57587;55.688;37.600;2023-03-24T06:28:09;98011.53;;;9.54;69.28
70200;BME280;57587;55.688;37.600;2023-03-24T06:30:42;98009.09;;;9.46;70.30
70200;BME280;57587;55.688;37.600;2023-03-24T06:33:12;98010.31;;;9.50;70.75
70200;BME280;57587;55.688;37.600;2023-03-24T06:35:42;98012.91;;;9.63;70.48
70200;BME280;57587;55.688;37.600;2023-03-24T06:38:13;98008.19;;;9.59;70.44
70200;BME280;57587;55.688;37.600;2023-03-24T06:40:43;98006.28;;;9.66;69.90
70200;BME280;57587;55.688;37.600;2023-03-24T06:43:11;98015.97;;;9.67;70.53
70200;BME280;57587;55.688;37.600;2023-03-24T06:45:40;98008.09;;;9.79;70.01
70200;BME280;57587;55.688;37.600;2023-03-24T06:48:14;98007.59;;;9.88;70.04
70200;BME280;57587;55.688;37.600;2023-03-24T06:50:41;98006.34;;;9.91;69.63
70200;BME280;57587;55.688;37.600;2023-03-24T06:53:10;98009.41;;;9.95;69.10
70200;BME280;57587;55.688;37.600;2023-03-24T06:55:41;98008.97;;;9.98;69.24
70200;BME280;57587;55.688;37.600;2023-03-24T06:58:09;98002.78;;;9.97;69.47
70200;BME280;57587;55.688;37.600;2023-03-24T07:00:44;97999.22;;;10.03;69.20
70200;BME280;57587;55.688;37.600;2023-03-24T07:03:26;98014.81;;;10.06;68.71
70200;BME280;57587;55.688;37.600;2023-03-24T07:06:19;98002.06;;;10.08;69.18
70200;BME280;57587;55.688;37.600;2023-03-24T07:08:52;98012.59;;;10.03;68.88
70200;BME280;57587;55.688;37.600;2023-03-24T07:11:23;98001.31;;;10.01;69.36
70200;BME280;57587;55.688;37.600;2023-03-24T07:13:57;98002.56;;;9.99;69.46
70200;BME280;57587;55.688;37.600;2023-03-24T07:16:25;98007.69;;;10.00;69.28
70200;BME280;57587;55.688;37.600;2023-03-24T07:19:01;97997.59;;;10.02;69.40
70200;BME280;57587;55.688;37.600;2023-03-24T07:21:32;98004.19;;;10.00;69.29
70200;BME280;57587;55.688;37.600;2023-03-24T07:23:59;97997.97;;;10.06;69.53
70200;BME280;57587;55.688;37.600;2023-03-24T07:26:52;98000.00;;;10.10;69.57
70200;BME280;57587;55.688;37.600;2023-03-24T07:29:22;98006.78;;;10.13;69.20
70200;BME280;57587;55.688;37.600;2023-03-24T07:32:04;98009.91;;;10.03;69.21
70200;BME280;57587;55.688;37.600;2023-03-24T07:34:34;98015.00;;;10.11;70.01
70200;BME280;57587;55.688;37.600;2023-03-24T07:37:02;98009.28;;;10.08;69.04
70200;BME280;57587;55.688;37.600;2023-03-24T07:39:30;98023.81;;;10.12;69.17
70200;BME280;57587;55.688;37.600;2023-03-24T07:41:57;98019.78;;;10.03;69.28
70200;BME280;57587;55.688;37.600;2023-03-24T07:44:44;98016.25;;;10.09;69.22
70200;BME280;57587;55.688;37.600;2023-03-24T07:47:12;98030.16;;;10.18;69.19
70200;BME280;57587;55.688;37.600;2023-03-24T07:49:39;98023.38;;;10.15;69.54
70200;BME280;57587;55.688;37.600;2023-03-24T07:52:09;98017.59;;;10.18;69.20
70200;BME280;57587;55.688;37.600;2023-03-24T07:54:39;98027.00;;;10.27;69.10
70200;BME280;57587;55.688;37.600;2023-03-24T07:57:07;98028.22;;;10.31;68.89
70200;BME280;57587;55.688;37.600;2023-03-24T07:59:37;98032.72;;;10.31;68.60
70200;BME280;57587;55.688;37.600;2023-03-24T08:02:22;98035.69;;;10.23;68.43
70200;BME280;57587;55.688;37.600;2023-03-24T08:04:56;98028.16;;;10.13;69.02
70200;BME280;57587;55.688;37.600;2023-03-24T08:07:47;98038.19;;;10.18;68.84
70200;BME280;57587;55.688;37.600;2023-03-24T08:10:16;98033.28;;;10.14;69.12
70200;BME280;57587;55.688;37.600;2023-03-24T08:12:43;98036.56;;;10.16;68.82
70200;BME280;57587;55.688;37.600;2023-03-24T08:15:10;98046.63;;;10.14;68.91
70200;BME280;57587;55.688;37.600;2023-03-24T08:17:39;98037.53;;;10.22;69.10
70200;BME280;57587;55.688;37.600;2023-03-24T08:20:10;98046.78;;;10.26;69.13
70200;BME280;57587;55.688;37.600;2023-03-24T08:22:45;98042.03;;;10.28;69.02
70200;BME280;57587;55.688;37.600;2023-03-24T08:25:17;98039.75;;;10.32;68.59
70200;BME280;57587;55.688;37.600;2023-03-24T08:27:45;98043.97;;;10.39;68.98
70200;BME280;57587;55.688;37.600;2023-03-24T08:30:18;98043.03;;;10.52;67.96
70200;BME280;57587;55.688;37.600;2023-03-24T08:32:55;98028.03;;;10.51;67.72
70200;BME280;57587;55.688;37.600;2023-03-24T08:35:31;98044.31;;;10.68;67.29
70200;BME280;57587;55.688;37.600;2023-03-24T08:38:00;98040.69;;;10.81;67.41
70200;BME280;57587;55.688;37.600;2023-03-24T08:40:32;98044.56;;;10.85;67.09
70200;BME280;57587;55.688;37.600;2023-03-24T08:43:03;98036.06;;;11.06;66.31
70200;BME280;57587;55.688;37.600;2023-03-24T08:45:31;98044.09;;;11.25;65.85
70200;BME280;57587;55.688;37.600;2023-03-24T08:48:00;98038.28;;;11.28;66.47
70200;BME280;57587;55.688;37.600;2023-03-24T08:50:30;98038.56;;;11.38;65.74
70200;BME280;57587;55.688;37.600;2023-03-24T08:52:58;98038.47;;;11.45;66.22
70200;BME280;57587;55.688;37.600;2023-03-24T08:55:26;98039.94;;;11.59;65.52
70200;BME280;57587;55.688;37.600;2023-03-24T08:57:53;98041.91;;;11.64;65.06
70200;BME280;57587;55.688;37.600;2023-03-24T09:00:20;98050.19;;;11.62;65.11
70200;BME280;57587;55.688;37.600;2023-03-24T09:02:50;98040.94;;;11.46;64.18
70200;BME280;57587;55.688;37.600;2023-03-24T09:05:20;98047.31;;;11.45;64.88
70200;BME280;57587;55.688;37.600;2023-03-24T09:07:58;98053.44;;;11.34;64.87
70200;BME280;57587;55.688;37.600;2023-03-24T09:10:33;98049.81;;;11.28;64.90
70200;BME280;57587;55.688;37.600;2023-03-24T09:13:00;98064.69;;;11.24;65.29
70200;BME280;57587;55.688;37.600;2023-03-24T09:15:32;98061.41;;;11.22;65.48
70200;BME280;57587;55.688;37.600;2023-03-24T09:18:01;98060.25;;;11.18;65.34
70200;BME280;57587;55.688;37.600;2023-03-24T09:20:31;98058.03;;;11.27;65.99
70200;BME280;57587;55.688;37.600;2023-03-24T09:23:06;98050.16;;;11.32;65.52
70200;BME280;57587;55.688;37.600;2023-03-24T09:25:35;98060.44;;;11.35;65.73
70200;BME280;57587;55.688;37.600;2023-03-24T09:28:06;98056.63;;;11.43;65.32
70200;BME280;57587;55.688;37.600;2023-03-24T09:30:34;98062.94;;;11.30;65.34
70200;BME280;57587;55.688;37.600;2023-03-24T09:33:02;98063.34;;;11.34;65.69
70200;BME280;57587;55.688;37.600;2023-03-24T09:35:29;98073.59;;;11.37;65.98
70200;BME280;57587;55.688;37.600;2023-03-24T09:37:57;98062.06;;;11.36;65.79
70200;BME280;57587;55.688;37.600;2023-03-24T09:40:26;98069.78;;;11.44;65.84
70200;BME280;57587;55.688;37.600;2023-03-24T09:43:06;98074.97;;;11.58;65.31
70200;BME280;57587;55.688;37.600;2023-03-24T09:45:46;98081.53;;;11.62;65.31
70200;BME280;57587;55.688;37.600;2023-03-24T09:51:03;98085.56;;;11.52;64.92
70200;BME280;57587;55.688;37.600;2023-03-24T09:53:45;98089.13;;;11.46;65.30
70200;BME280;57587;55.688;37.600;2023-03-24T09:56:22;98085.22;;;11.30;65.00
70200;BME280;57587;55.688;37.600;2023-03-24T09:59:10;98095.16;;;11.23;64.80
70200;BME280;57587;55.688;37.600;2023-03-24T10:01:39;98087.66;;;10.95;66.09
70200;BME280;57587;55.688;37.600;2023-03-24T10:04:17;98089.31;;;10.96;66.27
70200;BME280;57587;55.688;37.600;2023-03-24T10:06:47;98085.13;;;11.00;66.34
70200;BME280;57587;55.688;37.600;2023-03-24T10:09:29;98090.06;;;11.03;66.43
70200;BME280;57587;55.688;37.600;2023-03-24T10:15:23;98104.41;;;10.91;66.15
70200;BME280;57587;55.688;37.600;2023-03-24T10:18:22;98108.94;;;10.90;66.10
70200;BME280;57587;55.688;37.600;2023-03-24T10:20:59;98105.94;;;10.80;66.21
70200;BME280;57587;55.688;37.600;2023-03-24T10:23:37;98105.00;;;10.68;66.83
70200;BME280;57587;55.688;37.600;2023-03-24T10:29:28;98103.31;;;10.73;66.91
70200;BME280;57587;55.688;37.600;2023-03-24T10:31:59;98105.56;;;10.76;66.79
70200;BME280;57587;55.688;37.600;2023-03-24T10:34:30;98113.81;;;10.75;66.24
70200;BME280;57587;55.688;37.600;2023-03-24T10:37:03;98109.66;;;10.79;66.68
70200;BME280;57587;55.688;37.600;2023-03-24T10:39:31;98107.50;;;10.88;66.09
70200;BME280;57587;55.688;37.600;2023-03-24T10:42:17;98106.84;;;10.92;65.44
70200;BME280;57587;55.688;37.600;2023-03-24T10:44:46;98110.66;;;11.03;65.36
70200;BME280;57587;55.688;37.600;2023-03-24T10:47:17;98107.75;;;11.23;64.95
70200;BME280;57587;55.688;37.600;2023-03-24T10:50:12;98117.63;;;11.04;64.55
70200;BME280;57587;55.688;37.600;2023-03-24T10:52:43;98112.13;;;11.17;65.23
70200;BME280;57587;55.688;37.600;2023-03-24T10:55:17;98122.75;;;11.24;64.78
70200;BME280;57587;55.688;37.600;2023-03-24T10:57:48;98122.69;;;11.30;64.63
70200;BME280;57587;55.688;37.600;2023-03-24T11:00:21;98122.31;;;11.27;64.43
70200;BME280;57587;55.688;37.600;2023-03-24T11:02:58;98118.72;;;11.33;64.08
70200;BME280;57587;55.688;37.600;2023-03-24T11:05:29;98126.47;;;11.41;63.53
70200;BME280;57587;55.688;37.600;2023-03-24T11:10:54;98128.94;;;11.43;63.34
70200;BME280;57587;55.688;37.600;2023-03-24T11:16:13;98129.66;;;11.68;62.01
70200;BME280;57587;55.688;37.600;2023-03-24T11:19:02;98131.38;;;12.23;60.48
70200;BME280;57587;55.688;37.600;2023-03-24T11:21:31;98133.44;;;12.51;60.48
70200;BME280;57587;55.688;37.600;2023-03-24T11:24:12;98131.78;;;12.50;59.15
70200;BME280;57587;55.688;37.600;2023-03-24T11:26:58;98128.97;;;12.57;59.07
70200;BME280;57587;55.688;37.600;2023-03-24T11:29:37;98129.25;;;12.67;59.05
70200;BME280;57587;55.688;37.600;2023-03-24T11:32:21;98130.63;;;12.81;58.34
70200;BME280;57587;55.688;37.600;2023-03-24T11:34:50;98129.34;;;12.96;58.47
70200;BME280;57587;55.688;37.600;2023-03-24T11:37:26;98139.50;;;12.93;58.08
70200;BME280;57587;55.688;37.600;2023-03-24T11:40:14;98144.53;;;12.90;57.71
70200;BME280;57587;55.688;37.600;2023-03-24T11:42:51;98136.25;;;12.80;58.01
70200;BME280;57587;55.688;37.600;2023-03-24T11:47:47;98142.88;;;12.77;58.17
70200;BME280;57587;55.688;37.600;2023-03-24T11:50:24;98146.03;;;12.74;57.45
70200;BME280;57587;55.688;37.600;2023-03-24T11:55:37;98158.38;;;12.63;57.98
70200;BME280;57587;55.688;37.600;2023-03-24T11:58:20;98151.75;;;12.66;58.29
70200;BME280;57587;55.688;37.600;2023-03-24T12:00:58;98163.19;;;12.61;58.17
70200;BME280;57587;55.688;37.600;2023-03-24T12:11:50;98161.31;;;12.08;59.38
70200;BME280;57587;55.688;37.600;2023-03-24T12:14:33;98172.19;;;11.95;59.86
70200;BME280;57587;55.688;37.600;2023-03-24T12:17:56;98177.69;;;11.82;60.37
70200;BME280;57587;55.688;37.600;2023-03-24T12:20:16;98176.22;;;11.67;60.76
70200;BME280;57587;55.688;37.600;2023-03-24T12:39:10;98187.34;;;11.89;60.85
70200;BME280;57587;55.688;37.600;2023-03-24T12:41:57;98198.44;;;12.05;60.40
70200;BME280;57587;55.688;37.600;2023-03-24T12:55:46;98192.88;;;12.36;57.66
70200;BME280;57587;55.688;37.600;2023-03-24T13:03:22;98194.03;;;11.98;58.15
70200;BME280;57587;55.688;37.600;2023-03-24T13:05:54;98190.00;;;11.89;58.76
70200;BME280;57587;55.688;37.600;2023-03-24T13:08:37;98190.13;;;11.76;59.00
70200;BME280;57587;55.688;37.600;2023-03-24T13:11:09;98202.22;;;11.85;58.55
70200;BME280;57587;55.688;37.600;2023-03-24T13:13:56;98195.38;;;11.89;58.86
70200;BME280;57587;55.688;37.600;2023-03-24T13:16:29;98196.81;;;12.04;58.51
70200;BME280;57587;55.688;37.600;2023-03-24T13:18:59;98205.47;;;12.06;57.96
70200;BME280;57587;55.688;37.600;2023-03-24T13:21:28;98200.78;;;12.01;57.99
70200;BME280;57587;55.688;37.600;2023-03-24T13:24:09;98206.38;;;11.99;58.28
70200;BME280;57587;55.688;37.600;2023-03-24T13:29:41;98210.56;;;11.95;58.36
70200;BME280;57587;55.688;37.600;2023-03-24T13:34:53;98198.72;;;11.85;58.37
70200;BME280;57587;55.688;37.600;2023-03-24T13:37:25;98205.75;;;11.79;58.77
70200;BME280;57587;55.688;37.600;2023-03-24T13:39:57;98199.22;;;11.75;58.93
70200;BME280;57587;55.688;37.600;2023-03-24T13:42:34;98218.88;;;11.69;58.95
70200;BME280;57587;55.688;37.600;2023-03-24T13:45:05;98214.41;;;11.63;59.30
70200;BME280;57587;55.688;37.600;2023-03-24T13:48:04;98218.34;;;11.60;59.09
70200;BME280;57587;55.688;37.600;2023-03-24T13:50:33;98213.69;;;11.56;59.18
70200;BME280;57587;55.688;37.600;2023-03-24T13:53:05;98213.97;;;11.47;59.43
70200;BME280;57587;55.688;37.600;2023-03-24T13:55:37;98216.91;;;11.39;59.33
70200;BME280;57587;55.688;37.600;2023-03-24T13:58:11;98226.81;;;11.39;59.38
70200;BME280;57587;55.688;37.600;2023-03-24T14:03:38;98217.09;;;11.44;59.67
70200;BME280;57587;55.688;37.600;2023-03-24T14:06:07;98217.69;;;11.46;59.47
70200;BME280;57587;55.688;37.600;2023-03-24T14:14:16;98223.94;;;11.40;59.39
70200;BME280;57587;55.688;37.600;2023-03-24T14:22:28;98242.59;;;11.28;59.00
70200;BME280;57587;55.688;37.600;2023-03-24T14:27:49;98248.25;;;11.39;58.57
70200;BME280;57587;55.688;37.600;2023-03-24T14:30:24;98247.22;;;11.40;58.19
70200;BME280;57587;55.688;37.600;2023-03-24T14:32:57;98251.59;;;11.34;58.60
70200;BME280;57587;55.688;37.600;2023-03-24T14:35:41;98252.69;;;11.26;58.57
70200;BME280;57587;55.688;37.600;2023-03-24T14:40:45;98264.44;;;11.25;59.15
70200;BME280;57587;55.688;37.600;2023-03-24T14:43:20;98266.69;;;11.28;58.91
70200;BME280;57587;55.688;37.600;2023-03-24T14:49:03;98261.97;;;11.24;58.51
70200;BME280;57587;55.688;37.600;2023-03-24T14:51:35;98257.66;;;11.23;58.17
70200;BME280;57587;55.688;37.600;2023-03-24T14:54:12;98255.69;;;11.12;58.02
70200;BME280;57587;55.688;37.600;2023-03-24T14:56:45;98252.25;;;11.04;58.22
70200;BME280;57587;55.688;37.600;2023-03-24T15:02:29;98272.03;;;11.03;58.40
70200;BME280;57587;55.688;37.600;2023-03-24T15:05:19;98267.28;;;11.05;57.94
70200;BME280;57587;55.688;37.600;2023-03-24T15:13:03;98288.78;;;10.92;58.19
70200;BME280;57587;55.688;37.600;2023-03-24T15:15:30;98287.59;;;10.88;57.94
70200;BME280;57587;55.688;37.600;2023-03-24T15:18:01;98291.31;;;10.87;58.07
70200;BME280;57587;55.688;37.600;2023-03-24T15:20:31;98298.13;;;10.83;57.86
70200;BME280;57587;55.688;37.600;2023-03-24T15:23:15;98293.22;;;10.80;57.93
70200;BME280;57587;55.688;37.600;2023-03-24T15:25:43;98303.09;;;10.79;57.92
70200;BME280;57587;55.688;37.600;2023-03-24T15:28:36;98314.66;;;10.73;57.57
70200;BME280;57587;55.688;37.600;2023-03-24T15:31:04;98310.34;;;10.72;57.80
70200;BME280;57587;55.688;37.600;2023-03-24T15:33:41;98308.25;;;10.74;57.60
70200;BME280;57587;55.688;37.600;2023-03-24T15:36:14;98306.84;;;10.72;57.77
70200;BME280;57587;55.688;37.600;2023-03-24T15:38:47;98317.56;;;10.72;57.89
70200;BME280;57587;55.688;37.600;2023-03-24T15:41:19;98307.28;;;10.69;57.58
70200;BME280;57587;55.688;37.600;2023-03-24T15:43:52;98313.50;;;10.63;57.49
70200;BME280;57587;55.688;37.600;2023-03-24T15:46:29;98321.28;;;10.64;58.13
70200;BME280;57587;55.688;37.600;2023-03-24T15:48:58;98326.28;;;10.54;58.32
70200;BME280;57587;55.688;37.600;2023-03-24T15:51:49;98327.50;;;10.58;58.33
70200;BME280;57587;55.688;37.600;2023-03-24T15:54:44;98328.75;;;10.55;57.91
70200;BME280;57587;55.688;37.600;2023-03-24T15:57:21;98334.09;;;10.55;58.11
70200;BME280;57587;55.688;37.600;2023-03-24T15:59:49;98336.75;;;10.55;57.95